sensor_id;sensor_type;location;lat;lon;timestamp;temperature;humidity
43528;DHT22;52359;42.658;23.320;2022-07-12T04:45:35;14.10;98.60
43528;DHT22;52359;42.658;23.320;2022-07-12T05:22:07;14.50;99.90
43528;DHT22;52359;42.658;23.320;2022-07-12T05:44:05;15.00;98.70
43528;DHT22;52359;42.658;23.320;2022-07-12T05:46:30;15.20;99.50
43528;DHT22;52359;42.658;23.320;2022-07-12T05:48:56;15.20;99.70
43528;DHT22;52359;42.658;23.320;2022-07-12T05:51:22;15.20;98.60
43528;DHT22;52359;42.658;23.320;2022-07-12T11:32:03;25.40;69.90
43528;DHT22;52359;42.658;23.320;2022-07-12T11:34:31;25.50;71.40
43528;DHT22;52359;42.658;23.320;2022-07-12T11:36:59;25.30;71.30
43528;DHT22;52359;42.658;23.320;2022-07-12T11:39:37;25.40;71.80
43528;DHT22;52359;42.658;23.320;2022-07-12T11:42:04;25.60;71.60
43528;DHT22;52359;42.658;23.320;2022-07-12T11:44:48;25.60;72.00
43528;DHT22;52359;42.658;23.320;2022-07-12T11:47:14;25.70;74.00
43528;DHT22;52359;42.658;23.320;2022-07-12T11:49:49;25.80;74.50
43528;DHT22;52359;42.658;23.320;2022-07-12T11:52:16;25.60;72.30
43528;DHT22;52359;42.658;23.320;2022-07-12T11:54:43;26.10;71.90
43528;DHT22;52359;42.658;23.320;2022-07-12T11:57:10;26.10;71.70
43528;DHT22;52359;42.658;23.320;2022-07-12T11:59:36;26.90;73.00
43528;DHT22;52359;42.658;23.320;2022-07-12T12:02:03;27.30;73.70
43528;DHT22;52359;42.658;23.320;2022-07-12T12:04:29;27.00;70.20
43528;DHT22;52359;42.658;23.320;2022-07-12T12:06:55;27.10;72.30
43528;DHT22;52359;42.658;23.320;2022-07-12T12:09:21;27.40;71.50
43528;DHT22;52359;42.658;23.320;2022-07-12T12:11:46;27.20;71.90
43528;DHT22;52359;42.658;23.320;2022-07-12T12:14:12;27.00;72.60
43528;DHT22;52359;42.658;23.320;2022-07-12T12:41:19;26.90;68.50
43528;DHT22;52359;42.658;23.320;2022-07-12T12:43:55;26.50;67.90
43528;DHT22;52359;42.658;23.320;2022-07-12T12:46:21;26.80;68.50
43528;DHT22;52359;42.658;23.320;2022-07-12T12:48:47;26.70;68.30
43528;DHT22;52359;42.658;23.320;2022-07-12T12:51:14;27.10;69.20
43528;DHT22;52359;42.658;23.320;2022-07-12T12:53:41;27.40;69.80
43528;DHT22;52359;42.658;23.320;2022-07-12T12:56:11;27.30;69.20
43528;DHT22;52359;42.658;23.320;2022-07-12T12:58:37;27.80;70.90
43528;DHT22;52359;42.658;23.320;2022-07-12T13:01:04;28.10;70.90
43528;DHT22;52359;42.658;23.320;2022-07-12T13:03:30;27.70;71.90
43528;DHT22;52359;42.658;23.320;2022-07-12T13:08:23;27.40;71.10
43528;DHT22;52359;42.658;23.320;2022-07-12T13:10:49;27.60;72.10
43528;DHT22;52359;42.658;23.320;2022-07-12T13:13:34;27.40;72.30
43528;DHT22;52359;42.658;23.320;2022-07-12T13:33:03;27.10;73.50
43528;DHT22;52359;42.658;23.320;2022-07-12T13:35:29;27.00;72.30
43528;DHT22;52359;42.658;23.320;2022-07-12T13:37:55;26.90;71.40
43528;DHT22;52359;42.658;23.320;2022-07-12T13:40:22;27.10;71.90
43528;DHT22;52359;42.658;23.320;2022-07-12T13:42:49;26.90;71.10
43528;DHT22;52359;42.658;23.320;2022-07-12T13:45:18;26.80;71.60
43528;DHT22;52359;42.658;23.320;2022-07-12T13:47:45;26.70;72.50
43528;DHT22;52359;42.658;23.320;2022-07-12T13:50:14;26.80;72.40
43528;DHT22;52359;42.658;23.320;2022-07-12T13:52:40;27.10;73.10
43528;DHT22;52359;42.658;23.320;2022-07-12T13:55:08;26.80;73.60
43528;DHT22;52359;42.658;23.320;2022-07-12T14:09:46;26.10;72.40
43528;DHT22;52359;42.658;23.320;2022-07-12T14:12:12;26.00;73.70
43528;DHT22;52359;42.658;23.320;2022-07-12T15:01:15;24.80;68.60
43528;DHT22;52359;42.658;23.320;2022-07-12T15:03:41;24.80;70.20
43528;DHT22;52359;42.658;23.320;2022-07-12T15:06:07;24.80;70.40
43528;DHT22;52359;42.658;23.320;2022-07-12T15:08:32;24.70;70.80
43528;DHT22;52359;42.658;23.320;2022-07-12T15:10:58;24.70;70.60
43528;DHT22;52359;42.658;23.320;2022-07-12T15:13:24;24.50;71.40
43528;DHT22;52359;42.658;23.320;2022-07-12T15:15:50;24.40;71.70
43528;DHT22;52359;42.658;23.320;2022-07-12T15:28:00;24.30;79.50
43528;DHT22;52359;42.658;23.320;2022-07-12T15:37:46;24.20;75.60
43528;DHT22;52359;42.658;23.320;2022-07-12T15:40:12;24.20;74.60
43528;DHT22;52359;42.658;23.320;2022-07-12T15:42:38;24.10;74.90
43528;DHT22;52359;42.658;23.320;2022-07-12T15:45:04;24.00;75.50
43528;DHT22;52359;42.658;23.320;2022-07-12T15:47:29;24.00;75.60
43528;DHT22;52359;42.658;23.320;2022-07-12T17:18:15;22.20;78.20
43528;DHT22;52359;42.658;23.320;2022-07-12T18:14:40;21.60;80.40
43528;DHT22;52359;42.658;23.320;2022-07-12T20:02:13;19.80;84.70
43528;DHT22;52359;42.658;23.320;2022-07-12T20:31:30;19.40;84.10
43528;DHT22;52359;42.658;23.320;2022-07-12T20:33:56;19.40;85.00
43528;DHT22;52359;42.658;23.320;2022-07-12T20:36:48;19.40;85.90
43528;DHT22;52359;42.658;23.320;2022-07-12T20:39:14;19.30;86.50
43528;DHT22;52359;42.658;23.320;2022-07-12T20:41:39;19.30;86.10
43528;DHT22;52359;42.658;23.320;2022-07-12T20:44:05;19.30;86.80
43528;DHT22;52359;42.658;23.320;2022-07-12T20:46:31;19.30;86.00
43528;DHT22;52359;42.658;23.320;2022-07-12T20:48:57;19.30;86.20
43528;DHT22;52359;42.658;23.320;2022-07-12T20:51:23;19.30;86.50
43528;DHT22;52359;42.658;23.320;2022-07-12T20:53:50;19.30;86.10
43528;DHT22;52359;42.658;23.320;2022-07-12T21:30:27;18.70;85.50
43528;DHT22;52359;42.658;23.320;2022-07-12T21:32:54;18.90;86.20
43528;DHT22;52359;42.658;23.320;2022-07-12T21:35:20;18.90;86.30
43528;DHT22;52359;42.658;23.320;2022-07-12T21:37:48;18.90;86.80
43528;DHT22;52359;42.658;23.320;2022-07-12T21:40:14;18.80;87.10
43528;DHT22;52359;42.658;23.320;2022-07-12T21:42:39;18.80;87.30
43528;DHT22;52359;42.658;23.320;2022-07-12T21:45:05;18.90;87.50
43528;DHT22;52359;42.658;23.320;2022-07-12T21:47:32;18.80;87.50
43528;DHT22;52359;42.658;23.320;2022-07-12T21:49:57;18.80;88.00
43528;DHT22;52359;42.658;23.320;2022-07-12T22:04:34;18.60;88.10
43528;DHT22;52359;42.658;23.320;2022-07-12T22:14:18;18.50;89.00
